ePrivacy and GPDR Cookie Consent by Cookie Consent
EmailTwitter


Surface observations / France / LFBO (07630)

Regions: Quebec | Canada | USA | Europe | France | UK | Elsewhere
Station
Display
Info & Location for LFBO (07630) | Help decoding METAR

Weather Conditions observed on 2024/02/28 at 06:30 UTC at TOULOUSE/BLAGNAC, FR (LFBO)

Sky conditions: overcast.

Temperature: 6.0 Celsius.

Dewpoint: 3.0 Celsius.

Relative Humidity: 81%

Windchill Factor 2.

Winds: West at 22 km/h or 12 knots.

Mean Sea level Pressure: 102.30 kilopascals.

Horizontal visibility: 6.21 statute miles or 9.94 kilometers.

Height of the Ceiling: 1097 metres ( 3600 feet ).

Coded METAR:

LFBO 280630Z AUTO 28012KT 9999 BKN036 OVC044 06/03 Q1023=